createdAt,value
2018-09-21T00:01:02.944Z,77.80
2018-09-21T00:03:33.482Z,77.80
2018-09-21T00:06:04.610Z,78.30
2018-09-21T00:08:35.334Z,78.20
2018-09-21T00:11:06.013Z,77.90
2018-09-21T00:13:36.903Z,77.80
2018-09-21T00:16:06.943Z,77.80
2018-09-21T00:18:37.561Z,77.90
2018-09-21T00:21:08.575Z,78.20
2018-09-21T00:23:39.537Z,78.10
2018-09-21T00:26:10.963Z,78.10
2018-09-21T00:28:45.204Z,77.80
2018-09-21T00:31:16.148Z,78.20
2018-09-21T00:33:47.526Z,78.10
2018-09-21T00:36:18.502Z,78.30
2018-09-21T00:38:49.222Z,78.40
2018-09-21T00:41:19.935Z,78.30
2018-09-21T00:43:50.771Z,78.20
2018-09-21T00:46:21.753Z,78.30
2018-09-21T00:48:52.727Z,78.30
2018-09-21T00:51:24.140Z,78.30
2018-09-21T00:53:54.905Z,78.30
2018-09-21T00:56:25.241Z,78.50
2018-09-21T00:58:56.487Z,78.40
2018-09-21T01:01:27.451Z,78.60
2018-09-21T01:03:58.423Z,78.40
2018-09-21T01:06:29.155Z,78.50
2018-09-21T01:08:59.849Z,78.70
2018-09-21T01:11:30.040Z,78.60
2018-09-21T01:14:00.562Z,78.70
2018-09-21T01:16:31.486Z,79.00
2018-09-21T01:19:02.446Z,79.00
2018-09-21T01:21:32.989Z,78.90
2018-09-21T01:24:04.502Z,78.90
2018-09-21T01:26:35.714Z,79.20
2018-09-21T01:29:06.811Z,79.30
2018-09-21T01:31:37.834Z,79.30
2018-09-21T01:34:09.449Z,79.40
2018-09-21T01:36:39.846Z,79.70
2018-09-21T01:39:11.536Z,79.50
2018-09-21T01:41:41.976Z,79.40
2018-09-21T01:44:12.760Z,79.30
2018-09-21T01:46:43.368Z,79.30
2018-09-21T01:49:13.926Z,79.20
2018-09-21T01:51:45.376Z,79.30
2018-09-21T01:54:16.117Z,79.30
2018-09-21T01:56:47.217Z,79.20
2018-09-21T01:59:17.893Z,79.00
2018-09-21T02:01:52.631Z,79.30
2018-09-21T02:04:28.857Z,78.90
2018-09-21T02:06:59.568Z,78.70
2018-09-21T02:09:30.372Z,78.60
2018-09-21T02:12:01.447Z,78.50
2018-09-21T02:14:32.531Z,78.60
2018-09-21T02:17:03.349Z,78.30
2018-09-21T02:19:33.941Z,78.20
2018-09-21T02:22:05.016Z,77.80
2018-09-21T02:24:35.936Z,77.70
2018-09-21T02:27:06.903Z,77.50
2018-09-21T02:29:37.983Z,77.40
2018-09-21T02:32:08.450Z,77.50
2018-09-21T02:34:39.298Z,77.50
2018-09-21T02:37:10.206Z,77.40
2018-09-21T02:39:41.532Z,77.50
2018-09-21T02:42:12.651Z,77.50
2018-09-21T02:44:43.915Z,77.60
2018-09-21T02:47:14.355Z,77.70
2018-09-21T02:49:45.444Z,77.60
2018-09-21T02:52:16.241Z,77.60
2018-09-21T02:54:47.188Z,77.50
2018-09-21T02:57:17.855Z,77.70
2018-09-21T02:59:48.826Z,77.60
2018-09-21T03:02:19.724Z,77.60
2018-09-21T03:04:55.241Z,77.60
2018-09-21T03:07:26.789Z,77.70
2018-09-21T03:09:57.765Z,77.80
2018-09-21T03:12:29.097Z,77.90
2018-09-21T03:14:59.923Z,77.90
2018-09-21T03:17:30.841Z,78.20
2018-09-21T03:20:02.093Z,78.20
2018-09-21T03:22:33.136Z,78.40
2018-09-21T03:25:04.130Z,78.50
2018-09-21T03:27:34.630Z,78.70
2018-09-21T03:30:05.873Z,78.70
2018-09-21T03:32:36.863Z,78.80
2018-09-21T03:35:07.623Z,78.70
2018-09-21T03:37:38.305Z,78.80
2018-09-21T03:40:08.615Z,78.80
2018-09-21T03:42:39.361Z,78.70
2018-09-21T03:45:10.185Z,78.80
2018-09-21T03:47:41.220Z,78.70
2018-09-21T03:50:11.992Z,78.80
2018-09-21T03:52:43.098Z,78.70
2018-09-21T03:55:13.776Z,78.70
2018-09-21T03:57:44.492Z,78.70
2018-09-21T04:00:15.599Z,78.60
2018-09-21T04:02:47.380Z,78.40
2018-09-21T04:05:18.692Z,78.30
2018-09-21T04:07:50.750Z,78.20
2018-09-21T04:10:23.475Z,78.10
2018-09-21T04:12:55.543Z,77.90
2018-09-21T04:15:26.485Z,77.90
2018-09-21T04:17:57.667Z,77.80
2018-09-21T04:20:28.692Z,77.70
2018-09-21T04:23:03.881Z,77.50
2018-09-21T04:25:34.840Z,77.20
2018-09-21T04:28:05.846Z,77.10
2018-09-21T04:30:36.954Z,77.00
2018-09-21T04:33:07.357Z,76.70
2018-09-21T04:35:39.309Z,76.70
2018-09-21T04:38:11.299Z,76.80
2018-09-21T04:40:41.806Z,76.80
2018-09-21T04:43:11.613Z,76.70
2018-09-21T04:45:41.811Z,76.70
2018-09-21T04:48:11.927Z,76.80
2018-09-21T04:50:42.116Z,76.80
2018-09-21T04:53:11.789Z,77.00
2018-09-21T04:55:41.809Z,77.10
2018-09-21T04:58:11.824Z,77.20
2018-09-21T05:00:42.252Z,77.30
2018-09-21T05:03:12.441Z,77.40
2018-09-21T05:05:42.731Z,77.60
2018-09-21T05:08:13.367Z,77.70
2018-09-21T05:10:44.280Z,78.10
2018-09-21T05:13:14.133Z,78.30
2018-09-21T05:15:45.272Z,78.50
2018-09-21T05:18:15.360Z,78.40
2018-09-21T05:20:45.190Z,78.40
2018-09-21T05:23:15.461Z,78.10
2018-09-21T05:25:45.252Z,77.90
2018-09-21T05:28:18.350Z,77.70
2018-09-21T05:30:48.571Z,77.60
2018-09-21T05:33:18.045Z,77.70
2018-09-21T05:35:48.075Z,77.80
2018-09-21T05:38:17.937Z,77.80
2018-09-21T05:40:47.273Z,77.70
2018-09-21T05:43:16.886Z,77.70
2018-09-21T05:45:46.448Z,77.60
2018-09-21T05:48:15.846Z,77.60
2018-09-21T05:50:45.364Z,77.60
2018-09-21T05:53:14.566Z,77.60
2018-09-21T05:55:44.152Z,77.60
2018-09-21T05:58:13.554Z,77.50
2018-09-21T06:00:42.960Z,77.40
2018-09-21T06:03:12.148Z,77.40
2018-09-21T06:05:41.670Z,77.30
2018-09-21T06:08:11.138Z,76.80
2018-09-21T06:10:40.918Z,76.80
2018-09-21T06:13:10.304Z,76.70
2018-09-21T06:15:39.558Z,76.60
2018-09-21T06:18:09.017Z,76.50
2018-09-21T06:20:38.519Z,76.30
2018-09-21T06:23:10.102Z,76.10
2018-09-21T06:25:39.441Z,76.10
2018-09-21T06:28:08.926Z,75.90
2018-09-21T06:30:38.452Z,76.10
2018-09-21T06:33:07.990Z,75.50
2018-09-21T06:35:37.572Z,75.30
2018-09-21T06:38:07.147Z,74.80
2018-09-21T06:40:37.044Z,74.20
2018-09-21T06:43:07.727Z,74.00
2018-09-21T06:45:37.304Z,73.90
2018-09-21T06:48:07.422Z,73.10
2018-09-21T06:50:39.902Z,73.00
2018-09-21T06:53:09.444Z,72.40
2018-09-21T06:55:40.964Z,72.20
2018-09-21T06:58:10.144Z,72.00
2018-09-21T07:00:39.642Z,72.10
2018-09-21T07:03:09.248Z,71.10
2018-09-21T07:05:38.987Z,70.80
2018-09-21T07:08:09.140Z,70.70
2018-09-21T07:10:39.244Z,70.80
2018-09-21T07:13:09.020Z,70.60
2018-09-21T07:15:38.546Z,70.60
2018-09-21T07:18:08.351Z,70.90
2018-09-21T07:20:37.854Z,71.20
2018-09-21T07:23:07.912Z,71.30
2018-09-21T07:25:37.484Z,71.80
2018-09-21T07:28:08.072Z,71.90
2018-09-21T07:30:37.610Z,72.20
2018-09-21T07:33:06.818Z,72.60
2018-09-21T07:35:36.338Z,72.90
2018-09-21T07:38:05.328Z,73.80
2018-09-21T07:40:34.740Z,74.10
2018-09-21T07:43:04.091Z,74.00
2018-09-21T07:45:33.732Z,74.90
2018-09-21T07:48:03.201Z,76.10
2018-09-21T07:50:32.674Z,76.60
2018-09-21T07:53:03.117Z,76.50
2018-09-21T07:55:32.857Z,75.60
2018-09-21T07:58:02.844Z,75.20
2018-09-21T08:00:32.923Z,74.90
2018-09-21T08:03:02.514Z,74.60
2018-09-21T08:05:33.109Z,74.60
2018-09-21T08:08:04.376Z,75.10
2018-09-21T08:10:34.396Z,75.30
2018-09-21T08:13:03.900Z,75.10
2018-09-21T08:15:33.280Z,75.60
2018-09-21T08:18:03.687Z,75.30
2018-09-21T08:20:33.185Z,75.50
2018-09-21T08:23:03.118Z,75.60
2018-09-21T08:25:33.616Z,77.90
2018-09-21T08:28:03.537Z,82.90
2018-09-21T08:30:33.176Z,84.10
2018-09-21T08:33:03.131Z,87.10
2018-09-21T08:35:33.320Z,89.70
2018-09-21T08:38:03.187Z,91.90
2018-09-21T08:40:34.487Z,95.00
2018-09-21T08:43:04.468Z,98.00
2018-09-21T08:45:34.628Z,97.10
2018-09-21T08:48:04.532Z,97.30
2018-09-21T08:50:35.682Z,96.40
2018-09-21T08:53:05.517Z,97.80
2018-09-21T08:55:35.787Z,96.20
2018-09-21T08:58:05.554Z,96.70
2018-09-21T09:00:35.580Z,97.10
2018-09-21T09:03:05.552Z,96.80
2018-09-21T09:05:35.638Z,97.60
2018-09-21T09:08:05.457Z,97.40
2018-09-21T09:10:35.443Z,98.50
2018-09-21T09:13:05.106Z,97.90
2018-09-21T09:15:38.811Z,98.10
2018-09-21T09:18:09.703Z,98.50
2018-09-21T09:20:44.281Z,98.40
2018-09-21T09:23:14.157Z,99.10
2018-09-21T09:25:43.874Z,98.40
2018-09-21T09:28:13.502Z,99.30
2018-09-21T09:30:43.584Z,98.50
2018-09-21T09:33:13.826Z,98.10
2018-09-21T09:35:43.694Z,98.70
2018-09-21T09:38:13.529Z,98.40
2018-09-21T09:40:43.001Z,98.30
2018-09-21T09:43:12.868Z,98.10
2018-09-21T09:45:42.248Z,98.20
2018-09-21T09:48:11.793Z,98.30
2018-09-21T09:50:42.940Z,98.80
2018-09-21T09:53:12.584Z,98.80
2018-09-21T09:55:44.978Z,98.90
2018-09-21T09:58:15.093Z,99.00
2018-09-21T10:00:49.530Z,98.10
2018-09-21T10:03:19.727Z,98.40
2018-09-21T10:05:49.427Z,99.20
2018-09-21T10:08:19.489Z,98.80
2018-09-21T10:10:48.951Z,98.70
2018-09-21T10:13:19.413Z,98.30
2018-09-21T10:15:49.985Z,98.40
2018-09-21T10:18:20.872Z,97.30
2018-09-21T10:20:51.038Z,97.50
2018-09-21T10:23:21.325Z,97.40
2018-09-21T10:25:51.209Z,96.90
2018-09-21T10:28:21.129Z,96.90
2018-09-21T10:30:50.707Z,95.30
2018-09-21T10:33:20.941Z,95.60
2018-09-21T10:35:50.510Z,96.40
2018-09-21T10:38:20.365Z,96.70
2018-09-21T10:40:49.993Z,95.90
2018-09-21T10:43:19.807Z,95.70
2018-09-21T10:45:49.855Z,94.50
2018-09-21T10:48:19.721Z,94.60
2018-09-21T10:50:50.444Z,94.70
2018-09-21T10:53:20.647Z,93.80
2018-09-21T10:55:52.356Z,93.80
2018-09-21T10:58:23.234Z,93.50
2018-09-21T11:00:53.157Z,93.20
2018-09-21T11:03:22.783Z,94.30
2018-09-21T11:05:53.633Z,93.00
2018-09-21T11:08:25.226Z,92.60
2018-09-21T11:11:01.800Z,93.00
2018-09-21T11:13:33.228Z,92.60
2018-09-21T11:16:03.216Z,91.60
2018-09-21T11:21:09.269Z,92.60
2018-09-21T11:23:38.676Z,93.00
2018-09-21T11:26:11.068Z,93.30
2018-09-21T11:28:40.796Z,95.30
2018-09-21T11:31:15.847Z,94.10
2018-09-21T11:33:50.415Z,91.70
2018-09-21T11:36:34.456Z,90.30
2018-09-21T11:39:06.988Z,89.90
2018-09-21T11:41:37.575Z,87.60
2018-09-21T11:44:12.257Z,86.20
2018-09-21T11:46:41.699Z,85.40
2018-09-21T11:49:11.777Z,84.60
2018-09-21T11:51:42.471Z,84.20
2018-09-21T11:54:22.568Z,83.90
2018-09-21T11:56:56.390Z,83.50
2018-09-21T11:59:27.652Z,84.20
2018-09-21T12:01:58.725Z,84.10
2018-09-21T12:04:32.940Z,83.90
2018-09-21T12:07:03.634Z,84.50
2018-09-21T12:09:34.338Z,85.20
2018-09-21T12:17:50.959Z,86.10
2018-09-21T12:20:47.415Z,85.90
2018-09-21T12:23:18.333Z,84.60
2018-09-21T12:25:48.117Z,81.90
2018-09-21T12:28:18.699Z,77.40
2018-09-21T12:30:48.339Z,76.00
2018-09-21T12:33:18.129Z,75.20
2018-09-21T12:35:47.935Z,74.20
2018-09-21T12:38:17.561Z,75.00
2018-09-21T12:40:48.557Z,74.80
2018-09-21T12:43:18.227Z,74.80
2018-09-21T12:45:47.988Z,73.80
2018-09-21T12:48:17.731Z,73.70
2018-09-21T12:50:47.695Z,71.50
2018-09-21T12:53:17.590Z,71.30
2018-09-21T12:55:47.580Z,70.80
2018-09-21T12:58:17.452Z,70.70
2018-09-21T13:00:51.865Z,70.70
2018-09-21T13:03:23.647Z,69.30
2018-09-21T13:05:57.599Z,68.40
2018-09-21T13:08:27.727Z,68.30
2018-09-21T13:10:57.647Z,68.30
2018-09-21T13:13:27.402Z,68.10
2018-09-21T13:15:58.274Z,68.10
2018-09-21T13:18:27.805Z,67.70
2018-09-21T13:20:57.175Z,67.60
2018-09-21T13:23:26.606Z,67.50
2018-09-21T13:25:56.641Z,66.60
2018-09-21T13:28:27.225Z,67.00
2018-09-21T13:30:57.092Z,67.00
2018-09-21T13:33:28.479Z,67.00
2018-09-21T13:35:58.791Z,65.50
2018-09-21T13:38:28.967Z,66.00
2018-09-21T13:40:59.445Z,66.50
2018-09-21T13:43:32.507Z,66.30
2018-09-21T13:46:02.329Z,67.00
2018-09-21T13:48:33.039Z,67.10
2018-09-21T13:51:02.843Z,66.10
2018-09-21T13:53:33.830Z,65.40
2018-09-21T13:56:04.274Z,64.20
2018-09-21T13:58:33.952Z,61.90
2018-09-21T14:01:04.775Z,60.40
2018-09-21T14:03:34.440Z,60.90
2018-09-21T14:06:11.535Z,60.40
2018-09-21T14:08:41.998Z,59.30
2018-09-21T14:11:11.639Z,59.10
2018-09-21T14:13:41.419Z,59.40
2018-09-21T14:16:12.460Z,61.00
2018-09-21T14:18:43.238Z,62.60
2018-09-21T14:21:13.741Z,62.80
2018-09-21T14:23:44.198Z,62.70
2018-09-21T14:26:14.232Z,63.90
2018-09-21T14:28:44.840Z,65.40
2018-09-21T14:31:14.544Z,66.20
2018-09-21T14:33:45.143Z,66.30
2018-09-21T14:36:15.996Z,65.30
2018-09-21T14:38:45.740Z,64.30
2018-09-21T14:41:16.023Z,65.30
2018-09-21T14:43:46.740Z,66.70
2018-09-21T14:46:16.750Z,68.20
2018-09-21T14:48:51.914Z,69.20
2018-09-21T14:51:23.271Z,69.40
2018-09-21T14:53:53.618Z,70.30
2018-09-21T14:56:24.063Z,73.40
2018-09-21T14:58:56.600Z,72.00
2018-09-21T15:01:27.184Z,69.30
2018-09-21T15:04:13.364Z,66.00
2018-09-21T15:06:44.336Z,63.50
2018-09-21T15:09:16.139Z,62.90
2018-09-21T15:11:46.825Z,63.70
2018-09-21T15:14:18.281Z,64.90
2018-09-21T15:16:50.558Z,63.20
2018-09-21T15:21:57.877Z,61.50
2018-09-21T15:24:29.843Z,59.90
2018-09-21T15:27:02.315Z,59.20
2018-09-21T15:29:34.914Z,57.80
2018-09-21T15:32:11.215Z,57.70
2018-09-21T15:34:45.047Z,58.30
2018-09-21T15:37:15.784Z,58.00
2018-09-21T15:39:51.003Z,57.90
2018-09-21T15:42:21.010Z,58.20
2018-09-21T15:44:51.320Z,59.50
2018-09-21T15:47:22.432Z,59.40
2018-09-21T15:49:53.959Z,58.70
2018-09-21T15:52:24.797Z,57.40
2018-09-21T15:54:56.061Z,56.00
2018-09-21T15:57:29.337Z,55.40
2018-09-21T16:00:00.251Z,56.40
2018-09-21T16:02:36.219Z,57.50
2018-09-21T16:05:06.723Z,56.60
2018-09-21T16:07:45.614Z,56.40
2018-09-21T16:10:18.065Z,56.20
2018-09-21T16:12:49.108Z,55.90
2018-09-21T16:15:19.260Z,55.30
2018-09-21T16:17:50.680Z,55.40
2018-09-21T16:20:22.129Z,55.30
2018-09-21T16:22:54.825Z,55.00
2018-09-21T16:25:24.983Z,54.90
2018-09-21T16:27:55.169Z,55.00
2018-09-21T16:30:26.541Z,54.60
2018-09-21T16:32:56.904Z,54.50
2018-09-21T16:35:29.464Z,54.70
2018-09-21T16:38:00.293Z,55.20
2018-09-21T16:40:31.372Z,55.80
2018-09-21T16:43:01.004Z,56.70
2018-09-21T16:45:31.875Z,57.20
2018-09-21T16:48:06.554Z,57.40
2018-09-21T16:50:37.275Z,57.50
2018-09-21T16:53:08.685Z,58.00
2018-09-21T16:55:40.615Z,58.50
2018-09-21T16:58:10.805Z,58.60
2018-09-21T17:00:42.388Z,58.90
2018-09-21T17:03:12.603Z,58.80
2018-09-21T17:05:42.912Z,59.20
2018-09-21T17:08:16.566Z,60.00
2018-09-21T17:10:49.545Z,60.90
2018-09-21T17:13:21.067Z,62.10
2018-09-21T17:15:51.723Z,63.20
2018-09-21T17:18:22.103Z,63.80
2018-09-21T17:20:58.983Z,64.40
2018-09-21T17:23:29.168Z,64.80
2018-09-21T17:26:00.122Z,65.20
2018-09-21T17:28:30.514Z,65.70
2018-09-21T17:31:01.485Z,66.30
2018-09-21T17:33:32.035Z,66.80
2018-09-21T17:36:01.755Z,67.10
2018-09-21T17:38:32.361Z,67.30
2018-09-21T17:41:03.774Z,67.60
2018-09-21T17:43:34.182Z,67.80
2018-09-21T17:46:04.603Z,67.90
2018-09-21T17:48:35.107Z,68.30
2018-09-21T17:51:05.247Z,68.40
2018-09-21T17:53:35.615Z,68.70
2018-09-21T17:56:08.145Z,68.90
2018-09-21T17:58:38.735Z,69.00
2018-09-21T18:01:14.827Z,69.50
2018-09-21T18:03:45.820Z,69.50
2018-09-21T18:06:16.805Z,69.60
2018-09-21T18:08:47.352Z,69.30
2018-09-21T18:11:18.395Z,68.70
2018-09-21T18:13:48.823Z,69.00
2018-09-21T18:16:18.800Z,68.80
2018-09-21T18:18:48.677Z,69.00
2018-09-21T18:21:19.380Z,68.80
2018-09-21T18:23:49.635Z,68.70
2018-09-21T18:26:20.120Z,68.90
2018-09-21T18:28:51.072Z,69.00
2018-09-21T18:31:21.714Z,69.20
2018-09-21T18:33:52.216Z,69.60
2018-09-21T18:36:22.760Z,69.90
2018-09-21T18:38:53.912Z,70.40
2018-09-21T18:41:24.452Z,70.50
2018-09-21T18:43:55.724Z,70.80
2018-09-21T18:46:27.231Z,71.00
2018-09-21T18:48:58.025Z,71.20
2018-09-21T18:51:28.205Z,71.70
2018-09-21T18:53:58.514Z,71.90
2018-09-21T18:56:29.938Z,72.20
2018-09-21T18:59:00.838Z,72.40
2018-09-21T19:01:31.833Z,72.70
2018-09-21T19:04:02.339Z,72.90
2018-09-21T19:06:32.705Z,73.20
2018-09-21T19:09:03.778Z,73.50
2018-09-21T19:11:33.418Z,73.80
2018-09-21T19:14:04.773Z,73.90
2018-09-21T19:16:34.796Z,74.10
2018-09-21T19:19:07.028Z,74.10
2018-09-21T19:21:41.528Z,74.10
2018-09-21T19:24:14.755Z,73.80
2018-09-21T19:26:51.650Z,73.70
2018-09-21T19:29:27.258Z,73.40
2018-09-21T19:32:01.452Z,73.40
2018-09-21T19:34:38.538Z,73.30
2018-09-21T19:37:18.343Z,73.20
2018-09-21T19:39:54.564Z,73.10
2018-09-21T19:45:13.067Z,73.20
2018-09-21T19:47:45.019Z,73.40
2018-09-21T19:50:19.118Z,73.50
2018-09-21T19:52:53.971Z,73.90
2018-09-21T19:55:28.692Z,74.30
2018-09-21T19:58:03.252Z,74.20
2018-09-21T20:01:08.838Z,74.20
2018-09-21T20:03:47.322Z,73.90
2018-09-21T20:06:23.693Z,73.90
2018-09-21T20:08:58.153Z,74.20
2018-09-21T20:11:36.407Z,74.30
2018-09-21T20:14:09.973Z,74.90
2018-09-21T20:16:43.447Z,75.00
2018-09-21T20:19:15.509Z,75.20
2018-09-21T20:22:53.594Z,75.00
2018-09-21T20:25:27.556Z,74.90
2018-09-21T20:28:03.619Z,75.10
2018-09-21T20:30:41.791Z,75.40
2018-09-21T20:33:20.479Z,75.20
2018-09-21T20:35:53.428Z,75.20
2018-09-21T20:38:25.284Z,75.00
2018-09-21T20:40:56.800Z,75.00
2018-09-21T20:43:28.648Z,74.80
2018-09-21T20:46:02.223Z,74.80
2018-09-21T20:48:36.311Z,75.10
2018-09-21T20:51:09.711Z,75.30
2018-09-21T20:53:43.907Z,75.40
2018-09-21T20:56:17.411Z,75.60
2018-09-21T20:58:53.216Z,76.00
2018-09-21T21:01:26.243Z,76.00
2018-09-21T21:03:59.896Z,76.20
2018-09-21T21:06:32.412Z,76.30
2018-09-21T21:09:05.284Z,76.50
2018-09-21T21:11:37.061Z,76.80
2018-09-21T21:14:09.957Z,76.60
2018-09-21T21:16:43.017Z,77.20
2018-09-21T21:19:15.673Z,77.20
2018-09-21T21:21:47.537Z,77.50
2018-09-21T21:24:19.807Z,77.60
2018-09-21T21:26:52.645Z,78.10
2018-09-21T21:29:25.980Z,78.20
2018-09-21T21:31:58.424Z,78.50
2018-09-21T21:34:30.507Z,78.80
2018-09-21T21:37:03.007Z,78.90
2018-09-21T21:39:35.149Z,79.30
2018-09-21T21:42:07.041Z,79.40
2018-09-21T21:44:39.783Z,79.50
2018-09-21T21:47:11.767Z,79.50
2018-09-21T21:49:48.101Z,79.70
2018-09-21T21:52:20.826Z,79.90
2018-09-21T21:54:52.525Z,79.90
2018-09-21T21:57:25.023Z,80.10
2018-09-21T21:59:57.435Z,80.60
2018-09-21T22:02:34.106Z,80.80
2018-09-21T22:05:09.453Z,80.90
2018-09-21T22:07:41.677Z,81.00
2018-09-21T22:10:14.769Z,81.30
2018-09-21T22:12:52.103Z,81.30
2018-09-21T22:15:23.289Z,81.50
2018-09-21T22:17:53.887Z,81.70
2018-09-21T22:20:25.690Z,81.80
2018-09-21T22:22:58.264Z,82.10
2018-09-21T22:25:29.500Z,82.20
2018-09-21T22:28:06.355Z,82.30
2018-09-21T22:30:37.853Z,82.60
2018-09-21T22:33:10.710Z,82.40
2018-09-21T22:35:41.542Z,82.70
2018-09-21T22:38:13.177Z,82.60
2018-09-21T22:40:45.142Z,82.70
2018-09-21T22:43:17.011Z,82.70
2018-09-21T22:45:48.301Z,82.70
2018-09-21T22:48:19.949Z,82.40
2018-09-21T22:50:50.719Z,82.20
2018-09-21T22:53:23.786Z,82.20
2018-09-21T22:55:54.866Z,82.10
2018-09-21T22:58:26.678Z,82.10
2018-09-21T23:00:58.336Z,82.60
2018-09-21T23:03:29.287Z,83.20
2018-09-21T23:06:01.876Z,84.50
2018-09-21T23:08:33.360Z,85.40
2018-09-21T23:11:05.945Z,87.20
2018-09-21T23:13:36.296Z,88.00
2018-09-21T23:16:07.696Z,88.80
2018-09-21T23:18:38.800Z,88.60
2018-09-21T23:21:09.589Z,88.70
2018-09-21T23:23:43.913Z,88.30
2018-09-21T23:26:16.345Z,87.80
2018-09-21T23:28:47.087Z,87.20
2018-09-21T23:31:18.952Z,87.00
2018-09-21T23:33:50.058Z,87.00
2018-09-21T23:36:22.047Z,86.30
2018-09-21T23:38:53.110Z,86.20
2018-09-21T23:41:26.925Z,86.00
2018-09-21T23:43:58.795Z,86.20
2018-09-21T23:46:30.944Z,85.90
2018-09-21T23:49:02.343Z,86.20
2018-09-21T23:51:33.799Z,86.20
2018-09-21T23:54:05.582Z,86.50
2018-09-21T23:56:36.931Z,86.60
2018-09-21T23:59:09.587Z,86.70
